Latest Weather Observations for Braidwood

IDN60901

Issued at 4:21 am EST Friday 29 May 2020 (issued every 10 minutes, with the page automatically refreshed every 10 minutes)

About weather observations | Map of Canberra area stations | Latest observations for Canberra area | Other Formats
Station Details ID: 069132 Name: BRAIDWOOD RACECOURSE AWS Lat: -35.43 Lon: 149.78 Height: 665.2 m
Data from the previous 72 hours. | See also: Recent months at Braidwood
Date/Time
EST
Temp
°C
App
Temp
°C
Dew
Point
°C
Rel
Hum
%
Delta-T
°C
Wind Press
QNH
hPa
Press
MSL
hPa
Rain since
9am
mm
Dir  Spd
km/h
Gust
km/h
Spd
kts
Gust
kts
29/04:14am 2.6 0.9 2.0 96 0.2 CALM 0 0 0 0 1025.5 1025.6 0.2
29/04:09am 2.8 1.2 2.2 96 0.2 CALM 0 0 0 0 1025.5 1025.6 0.2
29/04:00am 2.9 1.3 2.3 96 0.2 CALM 0 0 0 0 1025.4 1025.5 0.2
29/03:57am 3.0 1.4 2.4 96 0.2 CALM 0 0 0 0 1025.5 1025.6 0.2
29/03:30am 3.4 1.5 2.8 96 0.3 S 2 4 1 2 1025.5 1025.6 0.0
29/03:00am 3.5 2.0 2.8 95 0.3 CALM 0 0 0 0 1025.1 1025.3 0.0
29/02:30am 4.8 3.5 4.2 96 0.3 CALM 0 0 0 0 1025.0 1025.2 0.0
29/02:00am 4.7 2.6 4.0 95 0.3 E 4 6 2 3 1025.0 1025.2 0.0
29/01:35am 5.8 4.3 5.2 96 0.3 SW 2 6 1 3 1025.0 1025.2 0.0
29/01:30am 6.0 4.6 5.4 96 0.3 SW 2 6 1 3 1024.9 1025.1 0.0
29/01:00am 6.2 4.8 5.6 96 0.3 S 2 6 1 3 1024.8 1025.0 0.0
29/12:30am 7.4 5.3 6.8 96 0.3 SW 7 11 4 6 1025.0 1025.2 0.0
29/12:00am 5.9 4.8 5.3 96 0.3 CALM 0 0 0 0 1025.0 1025.2 0.0
 
Date/Time
EST
Temp
°C
App
Temp
°C
Dew
Point
°C
Rel
Hum
%
Delta-T
°C
Wind Press
QNH
hPa
Press
MSL
hPa
Rain since
9am
mm
Dir  Spd
km/h
Gust
km/h
Spd
kts
Gust
kts
28/11:40pm 5.7 4.2 5.1 96 0.3 S 2 4 1 2 1025.0 1025.2 0.0
28/11:30pm 5.5 3.6 4.9 96 0.3 S 4 4 2 2 1025.1 1025.3 0.0
28/11:11pm 5.2 3.2 4.6 96 0.3 SSE 4 4 2 2 1025.1 1025.3 0.0
28/11:00pm 5.2 3.6 4.6 96 0.3 SSE 2 4 1 2 1025.1 1025.3 0.0
28/10:30pm 5.3 3.4 4.7 96 0.3 SSE 4 6 2 3 1025.1 1025.3 0.0
28/10:00pm 4.7 3.4 4.0 95 0.3 CALM 0 0 0 0 1024.8 1025.0 0.0
28/09:37pm 4.1 2.6 3.2 94 0.4 CALM 0 0 0 0 1024.7 1024.9 0.0
28/09:30pm 4.7 3.3 3.8 94 0.4 CALM 0 0 0 0 1024.7 1024.9 0.0
28/09:00pm 5.0 2.9 4.1 94 0.4 SSE 4 4 2 2 1024.4 1024.5 0.0
28/08:30pm 5.1 3.0 4.1 93 0.4 SE 4 6 2 3 1024.1 1024.2 0.0
28/08:00pm 5.2 3.9 4.2 93 0.4 CALM 0 0 0 0 1024.0 1024.1 0.0
28/07:30pm 5.9 4.3 4.5 91 0.6 SSE 2 4 1 2 1023.5 1023.7 0.0
28/07:00pm 6.4 4.8 4.6 88 0.8 SSE 2 4 1 2 1023.0 1023.1 0.0
28/06:30pm 7.3 5.1 5.3 87 0.9 SSE 6 6 3 3 1022.8 1022.9 0.0
28/06:00pm 8.4 6.7 5.9 84 1.2 SE 4 6 2 3 1022.5 1022.6 0.0
28/05:30pm 9.3 7.1 5.5 77 1.8 SE 6 7 3 4 1022.2 1022.3 0.0
28/05:00pm 10.5 8.6 6.5 76 1.9 SSE 6 9 3 5 1021.7 1021.8 0.0
28/04:30pm 12.1 10.0 6.8 70 2.6 ESE 7 11 4 6 1021.4 1021.5 0.0
28/04:00pm 12.3 8.4 7.2 71 2.5 E 17 22 9 12 1021.2 1021.3 0.0
28/03:30pm 14.0 11.6 6.8 62 3.6 E 9 17 5 9 1021.0 1021.1 0.0
28/03:00pm 15.1 14.4 6.9 58 4.1 CALM 0 0 0 0 1020.8 1020.8 0.0
28/02:30pm 14.1 13.3 6.7 61 3.7 CALM 0 0 0 0 1020.7 1020.7 0.0
28/02:00pm 14.9 13.6 4.3 49 5.1 CALM 0 0 0 0 1020.7 1020.7 0.0
28/01:30pm 15.1 13.8 4.2 48 5.2 CALM 0 0 0 0 1020.7 1020.7 0.0
28/01:00pm 16.1 15.0 5.1 48 5.4 CALM 0 0 0 0 1020.7 1020.7 0.0
28/12:30pm 16.3 15.3 5.6 49 5.3 CALM 0 0 0 0 1020.9 1021.0 0.0
28/12:00pm 15.4 14.5 5.9 53 4.7 CALM 0 0 0 0 1021.4 1021.5 0.0
28/11:30am 14.5 12.8 5.8 56 4.3 NW 4 7 2 4 1021.7 1021.8 0.0
28/11:00am 14.4 13.1 7.7 64 3.4 NW 4 7 2 4 1022.0 1022.1 0.0
28/10:30am 13.3 12.2 8.4 72 2.5 WNW 4 9 2 5 1022.3 1022.4 0.0
28/10:00am 11.6 11.2 8.1 79 1.8 CALM 0 0 0 0 1022.4 1022.5 0.0
28/09:30am 8.6 8.1 8.0 96 0.3 CALM 0 0 0 0 1022.4 1022.5 0.0
28/09:00am 5.9 4.5 5.3 96 0.3 SSE 2 4 1 2 1022.3 1022.4 0.2
28/08:30am 3.6 2.1 3.0 96 0.3 CALM 0 0 0 0 1022.3 1022.4 0.2
28/08:00am 1.8 0.0 1.2 96 0.2 CALM 0 2 0 1 1022.0 1022.1 0.2
28/07:30am 0.2 -2.2 -0.4 96 0.2 S 2 4 1 2 1021.7 1021.8 0.2
28/07:00am 0.5 -1.5 -0.1 96 0.2 CALM 0 0 0 0 1021.4 1021.5 0.2
28/06:30am 0.7 -1.3 0.1 96 0.2 CALM 0 0 0 0 1021.0 1021.1 0.2
28/06:00am 1.0 -1.3 0.4 96 0.2 SSE 2 4 1 2 1020.9 1021.0 0.2
28/05:30am 1.1 -0.8 0.5 96 0.2 CALM 0 0 0 0 1020.6 1020.6 0.2
28/05:00am 1.7 -0.1 1.1 96 0.2 CALM 0 0 0 0 1020.7 1020.7 0.2
28/04:40am 1.6 -0.2 1.0 96 0.2 CALM 0 0 0 0 1020.6 1020.6 0.2
28/04:30am 1.6 -0.2 1.0 96 0.2 CALM 0 2 0 1 1020.4 1020.5 0.2
28/04:00am 1.4 -0.5 0.8 96 0.2 CALM 0 0 0 0 1020.4 1020.5 0.0
28/03:52am 1.7 -0.1 1.1 96 0.2 CALM 0 0 0 0 1020.4 1020.5 0.0
28/03:30am 2.4 -0.1 1.8 96 0.2 S 4 6 2 3 1020.4 1020.5 0.0
28/03:01am 2.6 0.9 2.0 96 0.2 CALM 0 0 0 0 1020.4 1020.5 0.0
28/03:00am 2.6 0.9 2.0 96 0.2 CALM 0 0 0 0 1020.4 1020.5 0.0
28/02:30am 2.8 0.8 2.1 95 0.3 N 2 4 1 2 1020.7 1020.7 0.0
28/02:13am 2.9 0.1 2.2 95 0.3 NNW 6 7 3 4 1020.7 1020.7 0.0
28/02:00am 3.2 0.9 2.5 95 0.3 NNW 4 6 2 3 1020.7 1020.7 0.0
28/01:46am 3.4 1.8 2.7 95 0.3 CALM 0 0 0 0 1020.6 1020.6 0.0
28/01:30am 3.6 2.1 2.9 95 0.3 CALM 0 0 0 0 1020.6 1020.6 0.0
28/01:00am 3.5 1.9 2.6 94 0.4 CALM 0 0 0 0 1020.6 1020.6 0.0
28/12:30am 4.3 2.9 3.6 95 0.3 CALM 0 0 0 0 1020.7 1020.7 0.0
28/12:00am 4.6 3.3 3.9 95 0.3 CALM 0 0 0 0 1020.8 1020.8 0.0
 
Date/Time
EST
Temp
°C
App
Temp
°C
Dew
Point
°C
Rel
Hum
%
Delta-T
°C
Wind Press
QNH
hPa
Press
MSL
hPa
Rain since
9am
mm
Dir  Spd
km/h
Gust
km/h
Spd
kts
Gust
kts
27/11:30pm 4.6 3.3 3.9 95 0.3 CALM 0 0 0 0 1020.8 1020.8 0.0
27/11:00pm 4.4 3.0 3.5 94 0.4 CALM 0 0 0 0 1020.8 1020.8 0.0
27/10:30pm 5.1 3.9 4.4 95 0.3 CALM 0 0 0 0 1021.0 1021.1 0.0
27/10:00pm 4.1 2.6 3.1 93 0.4 CALM 0 0 0 0 1021.1 1021.2 0.0
27/09:30pm 4.7 3.3 3.7 93 0.4 CALM 0 0 0 0 1021.2 1021.3 0.0
27/09:00pm 5.0 3.2 3.3 89 0.7 N 2 2 1 1 1021.2 1021.3 0.0
27/08:30pm 7.5 5.5 6.4 93 0.5 NW 6 9 3 5 1021.2 1021.3 0.0
27/08:00pm 7.1 6.1 5.6 90 0.7 CALM 0 0 0 0 1021.2 1021.3 0.0
27/07:30pm 7.7 6.9 6.3 91 0.7 CALM 0 0 0 0 1021.0 1021.1 0.0
27/07:00pm 7.8 6.9 6.1 89 0.8 CALM 0 0 0 0 1020.9 1021.0 0.0
27/06:30pm 8.0 7.1 6.1 88 0.9 CALM 0 0 0 0 1020.9 1021.0 0.0
27/06:00pm 7.8 6.7 5.1 83 1.2 CALM 0 0 0 0 1020.7 1020.7 0.0
27/05:30pm 8.3 7.2 5.1 80 1.5 CALM 0 0 0 0 1020.7 1020.7 0.0
27/05:00pm 9.7 8.2 4.9 72 2.2 NNW 2 4 1 2 1020.6 1020.6 0.0
27/04:30pm 12.3 10.6 5.7 64 3.2 NNW 4 7 2 4 1020.4 1020.5 0.0
27/04:00pm 13.9 12.4 6.7 62 3.6 NNW 4 7 2 4 1020.3 1020.4 0.0
27/03:30pm 13.9 11.7 5.3 56 4.2 NW 6 9 3 5 1020.1 1020.2 0.0
27/03:00pm 14.7 12.6 6.5 58 4.1 NW 7 15 4 8 1020.2 1020.3 0.0
27/02:30pm 13.9 12.0 6.7 62 3.6 NNW 6 11 3 6 1020.2 1020.3 0.0
27/02:00pm 14.0 12.0 6.4 60 3.8 NNW 6 11 3 6 1020.6 1020.6 0.0
27/01:30pm 14.1 12.1 6.9 62 3.6 N 7 15 4 8 1020.9 1021.0 0.0
27/01:00pm 14.0 12.1 6.8 62 3.6 NNW 6 11 3 6 1021.3 1021.4 0.0
27/12:30pm 12.8 11.5 7.7 71 2.6 NNE 4 7 2 4 1021.6 1021.7 0.0
27/12:00pm 13.9 12.2 7.4 65 3.3 N 6 9 3 5 1022.0 1022.1 0.0
27/11:30am 12.2 10.8 7.3 72 2.5 NNW 4 9 2 5 1022.7 1022.8 0.0
27/11:00am 11.7 10.4 7.6 76 2.1 NNW 4 6 2 3 1023.1 1023.2 0.0
27/10:30am 11.2 9.7 6.7 74 2.2 NNW 4 7 2 4 1023.5 1023.7 0.0
27/10:00am 10.2 9.1 6.7 79 1.7 NW 2 6 1 3 1023.6 1023.8 0.0
27/09:30am 10.0 9.5 7.8 86 1.1 CALM 0 0 0 0 1023.6 1023.8 0.0
27/09:00am 7.9 7.2 7.1 95 0.4 CALM 0 0 0 0 1023.6 1023.8 2.6
27/08:30am 7.1 6.3 6.5 96 0.3 CALM 0 0 0 0 1023.8 1023.9 2.6
27/08:00am 5.3 4.1 4.7 96 0.3 CALM 0 0 0 0 1023.4 1023.6 2.6
27/07:30am 3.9 2.4 3.2 95 0.3 CALM 0 0 0 0 1023.5 1023.7 2.6
27/07:00am 3.9 2.4 3.0 94 0.4 CALM 0 0 0 0 1023.6 1023.8 2.6
27/06:30am 3.5 1.9 2.3 92 0.5 CALM 0 0 0 0 1023.3 1023.4 2.6
27/06:00am 5.8 4.3 5.1 95 0.3 S 2 6 1 3 1023.1 1023.2 2.6
27/05:30am 6.1 4.3 5.4 95 0.3 SW 4 7 2 4 1023.1 1023.2 2.6
27/05:00am 5.1 3.8 4.2 94 0.4 CALM 0 0 0 0 1023.2 1023.3 2.6
27/04:30am 5.9 4.8 5.0 94 0.4 CALM 0 0 0 0 1023.3 1023.4 2.6
27/04:00am 6.1 5.0 5.1 93 0.5 CALM 0 0 0 0 1023.5 1023.7 2.4
27/03:30am 7.3 6.4 6.2 93 0.5 CALM 0 0 0 0 1023.6 1023.8 2.4
27/03:00am 8.1 7.4 6.9 92 0.6 CALM 0 0 0 0 1024.0 1024.1 2.4
27/02:30am 8.3 7.6 6.9 91 0.7 CALM 0 0 0 0 1024.3 1024.4 2.4
27/02:21am 8.4 7.7 7.0 91 0.7 CALM 0 0 0 0 1024.5 1024.6 2.4
27/02:00am 8.5 7.8 7.0 90 0.7 CALM 0 0 0 0 1024.6 1024.7 2.4
27/01:55am 8.5 7.8 7.0 90 0.7 CALM 0 0 0 0 1024.6 1024.7 2.4
27/01:30am 8.6 7.9 6.9 89 0.8 CALM 0 0 0 0 1024.7 1024.9 2.4
27/01:00am 8.7 8.0 7.0 89 0.8 CALM 0 0 0 0 1024.7 1024.9 2.4
27/12:30am 8.7 7.3 7.2 90 0.7 SW 4 6 2 3 1024.8 1025.0 2.4
27/12:00am 8.5 7.1 7.1 91 0.7 SW 4 4 2 2 1025.0 1025.2 2.4
 
Date/Time
EST
Temp
°C
App
Temp
°C
Dew
Point
°C
Rel
Hum
%
Delta-T
°C
Wind Press
QNH
hPa
Press
MSL
hPa
Rain since
9am
mm
Dir  Spd
km/h
Gust
km/h
Spd
kts
Gust
kts
26/11:30pm 8.6 8.0 7.5 93 0.5 CALM 0 2 0 1 1025.2 1025.4 2.4
26/11:00pm 8.8 7.1 7.6 92 0.6 ESE 6 7 3 4 1025.2 1025.4 2.4
26/10:30pm 8.8 7.4 7.4 91 0.7 S 4 6 2 3 1025.2 1025.4 2.4
26/10:00pm 8.8 6.9 7.4 91 0.7 S 7 9 4 5 1025.1 1025.3 2.4
26/09:30pm 9.0 7.1 7.5 90 0.7 S 7 9 4 5 1025.4 1025.5 2.4
26/09:00pm 9.0 7.1 7.5 90 0.7 S 7 11 4 6 1025.4 1025.5 2.4
26/08:30pm 9.2 7.6 7.8 91 0.7 S 6 9 3 5 1025.5 1025.6 2.4
26/08:00pm 9.3 7.6 7.7 90 0.8 S 6 7 3 4 1025.4 1025.5 2.4
26/07:30pm 9.6 7.9 7.7 88 0.9 SE 6 9 3 5 1025.4 1025.5 2.4
26/07:00pm 9.5 7.5 7.3 86 1.1 S 7 9 4 5 1024.9 1025.1 2.4
26/06:30pm 9.5 7.1 7.1 85 1.2 SSE 9 13 5 7 1024.8 1025.0 2.4
26/06:00pm 9.7 7.8 7.5 86 1.1 SSE 7 9 4 5 1024.7 1024.9 2.4
26/05:30pm 9.9 8.5 7.2 83 1.3 S 4 9 2 5 1024.7 1024.9 2.4
26/05:00pm 10.3 8.3 7.0 80 1.6 SSE 7 9 4 5 1024.4 1024.5 2.4
26/04:30pm 10.6 7.7 6.6 76 2.0 SSE 11 15 6 8 1024.4 1024.5 2.4
26/04:00pm 10.9 7.6 6.6 75 2.1 SE 13 20 7 11 1024.2 1024.3 2.4
26/03:30pm 11.4 7.9 7.1 75 2.1 ESE 15 22 8 12 1024.0 1024.1 2.4
26/03:00pm 12.1 7.7 6.6 69 2.7 SE 19 26 10 14 1023.8 1023.9 2.4
26/02:30pm 11.6 8.5 7.1 74 2.2 SSE 13 19 7 10 1023.6 1023.8 2.4
26/02:00pm 12.7 8.5 7.4 70 2.7 SE 19 26 10 14 1023.9 1024.0 2.4
26/01:30pm 12.0 8.0 6.5 69 2.7 SE 17 24 9 13 1024.4 1024.5 2.4
26/01:00pm 11.9 7.7 7.6 75 2.2 SE 19 28 10 15 1024.5 1024.6 2.4
26/12:30pm 11.4 7.4 8.3 81 1.6 SE 19 30 10 16 1024.9 1025.1 2.4
26/12:02pm 11.0 7.4 9.8 92 0.6 SE 19 28 10 15 1025.2 1025.4 2.4
26/12:00pm 11.0 7.2 9.9 93 0.6 SE 20 28 11 15 1025.4 1025.5 2.4
26/11:30am 10.4 7.5 9.6 95 0.4 SSE 15 22 8 12 1025.7 1025.8 1.4
26/11:00am 10.3 7.0 9.4 94 0.5 S 17 20 9 11 1025.9 1026.0 0.8
26/10:30am 10.4 7.1 9.6 95 0.4 S 17 24 9 13 1025.9 1026.0 0.6
26/10:00am 9.9 6.1 9.1 95 0.4 S 19 24 10 13 1026.0 1026.2 0.4
26/09:44am 9.9 6.5 9.1 95 0.4 S 17 26 9 14 1026.1 1026.3 0.2
26/09:30am 9.7 5.7 8.9 95 0.4 S 20 28 11 15 1025.9 1026.0 0.0
26/09:04am 9.5 5.6 8.7 95 0.4 S 19 24 10 13 1025.6 1025.7 0.0
26/09:00am 9.4 5.5 8.6 95 0.4 S 19 24 10 13 1025.5 1025.6 0.8
26/08:30am 9.0 5.0 8.2 95 0.4 S 19 24 10 13 1025.2 1025.4 0.6
26/08:21am 8.9 5.2 8.1 95 0.4 S 17 26 9 14 1025.1 1025.3 0.6
26/08:20am 9.0 5.4 8.2 95 0.4 S 17 26 9 14 1025.1 1025.3 0.6
26/08:00am 8.8 5.1 8.0 95 0.4 S 17 24 9 13 1024.8 1025.0 0.4
26/07:30am 8.4 5.0 7.6 95 0.4 S 15 22 8 12 1024.6 1024.7 0.4
26/07:00am 8.2 4.7 7.4 95 0.4 S 15 20 8 11 1024.3 1024.4 0.4
26/06:59am 8.1 4.6 7.3 95 0.4 S 15 20 8 11 1024.3 1024.4 0.4
26/06:39am 8.0 4.5 7.2 95 0.4 S 15 20 8 11 1024.2 1024.3 0.4
26/06:30am 8.1 4.2 7.3 95 0.4 S 17 22 9 12 1024.2 1024.3 0.2
26/06:12am 8.0 4.5 7.2 95 0.4 S 15 20 8 11 1024.2 1024.3 0.2
26/06:06am 7.9 4.0 7.1 95 0.4 S 17 22 9 12 1024.1 1024.2 0.2
26/06:00am 7.9 4.0 7.1 95 0.4 S 17 22 9 12 1024.0 1024.1 0.2
26/05:30am 7.9 4.7 7.0 94 0.4 S 13 22 7 12 1023.9 1024.0 0.2
26/05:00am 7.9 4.7 6.8 93 0.5 S 13 20 7 11 1023.8 1023.9 0.2
26/04:30am 7.7 4.5 6.8 94 0.4 S 13 24 7 13 1023.8 1023.9 0.2

Latest Capital City Observations: Canberra | Sydney | Melbourne | Brisbane | Adelaide | Perth | Hobart | Darwin

Other formats

Comma delimited format used in spreadsheet applications
http://www.bom.gov.au/fwo/IDN60903/IDN60903.94927.axf

JavaScript Object Notation format (JSON) in row-major order
http://www.bom.gov.au/fwo/IDN60903/IDN60903.94927.json

Data quality

Most of these data are generated automatically and are frequently updated. Quality checks on data are not normally performed. It is possible for incorrect values to appear. Refer to information at About Latest Weather Observations and please check the disclaimer before using these data.